sensor_id;sensor_type;location;lat;lon;timestamp;pressure;altitude;pressure_sealevel;temperature;humidity
11987;BME280;6053;51.382;6.768;2024-02-16T00:00:11;100874.59;;;14.85;62.92
11987;BME280;6053;51.382;6.768;2024-02-16T00:02:40;100876.28;;;14.83;62.94
11987;BME280;6053;51.382;6.768;2024-02-16T00:05:12;100869.50;;;14.53;62.90
11987;BME280;6053;51.382;6.768;2024-02-16T00:07:47;100874.91;;;14.87;61.35
11987;BME280;6053;51.382;6.768;2024-02-16T00:10:18;100870.75;;;14.92;60.97
11987;BME280;6053;51.382;6.768;2024-02-16T00:12:48;100882.28;;;14.51;62.81
11987;BME280;6053;51.382;6.768;2024-02-16T00:15:23;100888.28;;;14.71;59.75
11987;BME280;6053;51.382;6.768;2024-02-16T00:17:57;100885.69;;;14.85;60.83
11987;BME280;6053;51.382;6.768;2024-02-16T00:20:32;100888.00;;;14.87;59.28
11987;BME280;6053;51.382;6.768;2024-02-16T00:23:02;100890.50;;;14.94;58.93
11987;BME280;6053;51.382;6.768;2024-02-16T00:25:31;100891.28;;;14.55;59.35
11987;BME280;6053;51.382;6.768;2024-02-16T00:27:59;100885.00;;;14.33;61.16
11987;BME280;6053;51.382;6.768;2024-02-16T00:30:37;100887.44;;;14.31;62.93
11987;BME280;6053;51.382;6.768;2024-02-16T00:33:05;100886.50;;;14.55;63.37
11987;BME280;6053;51.382;6.768;2024-02-16T00:35:40;100886.00;;;14.48;60.73
11987;BME280;6053;51.382;6.768;2024-02-16T00:38:11;100896.34;;;14.78;64.72
11987;BME280;6053;51.382;6.768;2024-02-16T00:40:40;100887.47;;;15.10;64.99
11987;BME280;6053;51.382;6.768;2024-02-16T00:43:13;100887.38;;;15.22;62.51
11987;BME280;6053;51.382;6.768;2024-02-16T00:45:43;100884.41;;;15.08;60.51
11987;BME280;6053;51.382;6.768;2024-02-16T00:48:12;100878.16;;;14.86;59.90
11987;BME280;6053;51.382;6.768;2024-02-16T00:50:46;100875.34;;;14.77;62.50
11987;BME280;6053;51.382;6.768;2024-02-16T00:53:18;100874.88;;;14.78;58.56
11987;BME280;6053;51.382;6.768;2024-02-16T00:55:49;100881.66;;;14.77;59.62
11987;BME280;6053;51.382;6.768;2024-02-16T00:58:23;100879.47;;;14.72;59.04
11987;BME280;6053;51.382;6.768;2024-02-16T01:00:55;100875.88;;;14.33;60.50
11987;BME280;6053;51.382;6.768;2024-02-16T01:03:33;100881.69;;;14.86;59.73
11987;BME280;6053;51.382;6.768;2024-02-16T01:06:01;100871.94;;;14.82;60.83
11987;BME280;6053;51.382;6.768;2024-02-16T01:08:30;100869.94;;;15.30;61.94
11987;BME280;6053;51.382;6.768;2024-02-16T01:10:58;100870.19;;;15.06;59.83
11987;BME280;6053;51.382;6.768;2024-02-16T01:13:29;100871.78;;;15.25;63.65
11987;BME280;6053;51.382;6.768;2024-02-16T01:16:03;100868.50;;;15.17;58.51
11987;BME280;6053;51.382;6.768;2024-02-16T01:18:32;100868.47;;;15.08;61.90
11987;BME280;6053;51.382;6.768;2024-02-16T01:21:06;100870.28;;;15.68;60.74
11987;BME280;6053;51.382;6.768;2024-02-16T01:23:36;100872.56;;;15.34;59.53
11987;BME280;6053;51.382;6.768;2024-02-16T01:26:06;100861.84;;;15.15;62.96
11987;BME280;6053;51.382;6.768;2024-02-16T01:28:37;100865.19;;;15.58;62.08
11987;BME280;6053;51.382;6.768;2024-02-16T01:31:07;100864.16;;;15.07;61.29
11987;BME280;6053;51.382;6.768;2024-02-16T01:33:40;100863.63;;;14.91;62.47
11987;BME280;6053;51.382;6.768;2024-02-16T01:36:08;100858.97;;;14.88;59.35
11987;BME280;6053;51.382;6.768;2024-02-16T01:38:43;100852.47;;;14.82;62.14
11987;BME280;6053;51.382;6.768;2024-02-16T01:41:12;100864.16;;;14.68;60.81
11987;BME280;6053;51.382;6.768;2024-02-16T01:43:54;100858.84;;;14.82;59.06
11987;BME280;6053;51.382;6.768;2024-02-16T01:46:27;100863.13;;;14.74;61.52
11987;BME280;6053;51.382;6.768;2024-02-16T01:48:55;100853.19;;;14.64;59.38
11987;BME280;6053;51.382;6.768;2024-02-16T01:51:25;100854.34;;;14.85;59.12
11987;BME280;6053;51.382;6.768;2024-02-16T01:53:54;100860.59;;;15.16;62.98
11987;BME280;6053;51.382;6.768;2024-02-16T01:56:23;100857.03;;;15.06;61.48
11987;BME280;6053;51.382;6.768;2024-02-16T01:58:56;100848.31;;;14.86;59.41
11987;BME280;6053;51.382;6.768;2024-02-16T02:01:31;100851.84;;;14.78;62.03
11987;BME280;6053;51.382;6.768;2024-02-16T02:04:00;100857.56;;;14.74;63.10
11987;BME280;6053;51.382;6.768;2024-02-16T02:06:32;100849.47;;;15.16;63.92
11987;BME280;6053;51.382;6.768;2024-02-16T02:09:00;100848.09;;;14.72;61.50
11987;BME280;6053;51.382;6.768;2024-02-16T02:11:29;100851.50;;;14.67;59.72
11987;BME280;6053;51.382;6.768;2024-02-16T02:14:00;100851.06;;;15.26;61.84
11987;BME280;6053;51.382;6.768;2024-02-16T02:16:40;100844.50;;;15.02;58.66
11987;BME280;6053;51.382;6.768;2024-02-16T02:19:30;100845.97;;;15.24;63.82
11987;BME280;6053;51.382;6.768;2024-02-16T02:21:58;100842.94;;;14.92;62.73
11987;BME280;6053;51.382;6.768;2024-02-16T02:24:29;100830.56;;;14.45;62.75
11987;BME280;6053;51.382;6.768;2024-02-16T02:27:00;100833.34;;;14.84;65.69
11987;BME280;6053;51.382;6.768;2024-02-16T02:29:29;100838.63;;;14.91;61.02
11987;BME280;6053;51.382;6.768;2024-02-16T02:32:11;100829.47;;;14.90;58.64
11987;BME280;6053;51.382;6.768;2024-02-16T02:35:10;100839.00;;;14.71;59.10
11987;BME280;6053;51.382;6.768;2024-02-16T02:37:41;100836.59;;;14.82;59.99
11987;BME280;6053;51.382;6.768;2024-02-16T02:40:11;100824.53;;;14.85;62.28
11987;BME280;6053;51.382;6.768;2024-02-16T02:42:40;100827.19;;;14.98;62.88
11987;BME280;6053;51.382;6.768;2024-02-16T02:45:09;100820.44;;;14.68;63.59
11987;BME280;6053;51.382;6.768;2024-02-16T02:47:38;100814.22;;;15.04;62.98
11987;BME280;6053;51.382;6.768;2024-02-16T02:50:15;100810.66;;;14.94;63.08
11987;BME280;6053;51.382;6.768;2024-02-16T02:52:50;100812.59;;;15.24;58.82
11987;BME280;6053;51.382;6.768;2024-02-16T02:55:27;100808.50;;;14.89;60.92
11987;BME280;6053;51.382;6.768;2024-02-16T02:58:01;100799.38;;;14.98;63.84
11987;BME280;6053;51.382;6.768;2024-02-16T03:00:33;100804.56;;;14.30;64.75
11987;BME280;6053;51.382;6.768;2024-02-16T03:03:02;100806.19;;;14.49;61.50
11987;BME280;6053;51.382;6.768;2024-02-16T03:05:31;100799.31;;;14.80;61.55
11987;BME280;6053;51.382;6.768;2024-02-16T03:08:00;100797.88;;;14.57;62.11
11987;BME280;6053;51.382;6.768;2024-02-16T03:10:34;100791.91;;;14.68;61.18
11987;BME280;6053;51.382;6.768;2024-02-16T03:13:03;100809.38;;;14.38;59.76
11987;BME280;6053;51.382;6.768;2024-02-16T03:15:37;100808.25;;;14.57;63.24
11987;BME280;6053;51.382;6.768;2024-02-16T03:18:06;100803.59;;;15.20;58.83
11987;BME280;6053;51.382;6.768;2024-02-16T03:20:36;100800.41;;;14.73;62.12
11987;BME280;6053;51.382;6.768;2024-02-16T03:23:16;100802.41;;;14.64;59.95
11987;BME280;6053;51.382;6.768;2024-02-16T03:25:48;100803.00;;;14.68;59.94
11987;BME280;6053;51.382;6.768;2024-02-16T03:28:20;100797.31;;;14.71;63.50
11987;BME280;6053;51.382;6.768;2024-02-16T03:31:02;100799.09;;;14.56;61.72
11987;BME280;6053;51.382;6.768;2024-02-16T03:33:31;100795.31;;;14.81;59.94
11987;BME280;6053;51.382;6.768;2024-02-16T03:36:00;100801.41;;;14.49;63.70
11987;BME280;6053;51.382;6.768;2024-02-16T03:38:30;100793.59;;;14.65;62.55
11987;BME280;6053;51.382;6.768;2024-02-16T03:41:00;100790.28;;;14.49;62.66
11987;BME280;6053;51.382;6.768;2024-02-16T03:43:28;100799.75;;;14.69;61.50
11987;BME280;6053;51.382;6.768;2024-02-16T03:45:59;100793.09;;;14.58;64.36
11987;BME280;6053;51.382;6.768;2024-02-16T03:48:54;100792.88;;;14.83;63.76
11987;BME280;6053;51.382;6.768;2024-02-16T03:51:22;100790.69;;;14.87;63.10
11987;BME280;6053;51.382;6.768;2024-02-16T03:53:57;100800.28;;;14.77;61.08
11987;BME280;6053;51.382;6.768;2024-02-16T03:56:34;100793.09;;;14.58;60.72
11987;BME280;6053;51.382;6.768;2024-02-16T03:59:02;100798.44;;;14.83;62.17
11987;BME280;6053;51.382;6.768;2024-02-16T04:01:36;100796.00;;;14.54;60.90
11987;BME280;6053;51.382;6.768;2024-02-16T04:04:04;100792.19;;;14.61;62.08
11987;BME280;6053;51.382;6.768;2024-02-16T04:06:32;100797.53;;;14.86;60.61
11987;BME280;6053;51.382;6.768;2024-02-16T04:09:01;100793.78;;;14.71;62.80
11987;BME280;6053;51.382;6.768;2024-02-16T04:11:33;100794.28;;;14.87;62.12
11987;BME280;6053;51.382;6.768;2024-02-16T04:14:02;100790.22;;;14.79;64.28
11987;BME280;6053;51.382;6.768;2024-02-16T04:16:38;100792.16;;;15.09;62.18
11987;BME280;6053;51.382;6.768;2024-02-16T04:19:06;100805.53;;;14.84;61.40
11987;BME280;6053;51.382;6.768;2024-02-16T04:21:38;100804.00;;;14.44;62.55
11987;BME280;6053;51.382;6.768;2024-02-16T04:24:07;100800.47;;;14.52;61.53
11987;BME280;6053;51.382;6.768;2024-02-16T04:26:37;100802.50;;;15.00;64.40
11987;BME280;6053;51.382;6.768;2024-02-16T04:29:08;100810.00;;;14.90;64.17
11987;BME280;6053;51.382;6.768;2024-02-16T04:31:39;100808.34;;;14.53;63.07
11987;BME280;6053;51.382;6.768;2024-02-16T04:34:15;100809.38;;;14.38;62.79
11987;BME280;6053;51.382;6.768;2024-02-16T04:36:49;100805.56;;;14.45;63.35
11987;BME280;6053;51.382;6.768;2024-02-16T04:39:32;100815.25;;;14.40;64.25
11987;BME280;6053;51.382;6.768;2024-02-16T04:42:02;100813.56;;;14.43;61.81
11987;BME280;6053;51.382;6.768;2024-02-16T04:44:36;100815.28;;;14.19;63.41
11987;BME280;6053;51.382;6.768;2024-02-16T04:47:08;100811.56;;;13.91;63.16
11987;BME280;6053;51.382;6.768;2024-02-16T04:49:37;100818.31;;;14.33;61.80
11987;BME280;6053;51.382;6.768;2024-02-16T04:52:11;100828.66;;;13.90;63.64
11987;BME280;6053;51.382;6.768;2024-02-16T04:54:40;100818.19;;;14.37;62.90
11987;BME280;6053;51.382;6.768;2024-02-16T04:57:15;100824.78;;;14.30;65.34
11987;BME280;6053;51.382;6.768;2024-02-16T04:59:47;100828.41;;;14.18;64.31
11987;BME280;6053;51.382;6.768;2024-02-16T05:02:15;100825.22;;;14.07;64.15
11987;BME280;6053;51.382;6.768;2024-02-16T05:04:43;100835.13;;;13.87;64.54
11987;BME280;6053;51.382;6.768;2024-02-16T05:07:11;100825.50;;;14.00;64.59
11987;BME280;6053;51.382;6.768;2024-02-16T05:09:40;100822.97;;;13.93;64.89
11987;BME280;6053;51.382;6.768;2024-02-16T05:12:11;100821.63;;;13.98;64.22
11987;BME280;6053;51.382;6.768;2024-02-16T05:14:39;100822.41;;;13.98;67.60
11987;BME280;6053;51.382;6.768;2024-02-16T05:17:11;100822.53;;;14.16;65.64
11987;BME280;6053;51.382;6.768;2024-02-16T05:19:39;100824.56;;;13.73;63.82
11987;BME280;6053;51.382;6.768;2024-02-16T05:22:08;100814.53;;;13.75;64.60
11987;BME280;6053;51.382;6.768;2024-02-16T05:24:39;100821.06;;;13.81;65.82
11987;BME280;6053;51.382;6.768;2024-02-16T05:27:08;100820.13;;;13.84;65.38
11987;BME280;6053;51.382;6.768;2024-02-16T05:29:47;100823.22;;;14.29;64.04
11987;BME280;6053;51.382;6.768;2024-02-16T05:32:20;100823.13;;;14.11;64.49
11987;BME280;6053;51.382;6.768;2024-02-16T05:34:52;100822.69;;;13.91;64.80
11987;BME280;6053;51.382;6.768;2024-02-16T05:37:22;100817.50;;;13.81;65.37
11987;BME280;6053;51.382;6.768;2024-02-16T05:39:53;100817.63;;;14.20;66.00
11987;BME280;6053;51.382;6.768;2024-02-16T05:42:38;100811.59;;;14.00;65.87
11987;BME280;6053;51.382;6.768;2024-02-16T05:45:09;100807.81;;;14.07;64.93
11987;BME280;6053;51.382;6.768;2024-02-16T05:47:38;100813.13;;;14.14;65.48
11987;BME280;6053;51.382;6.768;2024-02-16T05:50:07;100808.81;;;14.00;66.16
11987;BME280;6053;51.382;6.768;2024-02-16T05:52:41;100810.88;;;14.30;66.82
11987;BME280;6053;51.382;6.768;2024-02-16T05:55:18;100815.03;;;14.04;66.11
11987;BME280;6053;51.382;6.768;2024-02-16T05:57:54;100817.75;;;13.95;64.88
11987;BME280;6053;51.382;6.768;2024-02-16T06:00:33;100815.63;;;14.21;65.32
11987;BME280;6053;51.382;6.768;2024-02-16T06:03:02;100819.94;;;14.00;67.43
11987;BME280;6053;51.382;6.768;2024-02-16T06:05:31;100823.53;;;14.31;65.54
11987;BME280;6053;51.382;6.768;2024-02-16T06:08:01;100823.03;;;13.81;66.65
11987;BME280;6053;51.382;6.768;2024-02-16T06:10:29;100821.63;;;13.98;67.55
11987;BME280;6053;51.382;6.768;2024-02-16T06:12:58;100826.25;;;14.13;67.48
11987;BME280;6053;51.382;6.768;2024-02-16T06:15:28;100823.63;;;13.97;66.45
11987;BME280;6053;51.382;6.768;2024-02-16T06:18:00;100824.25;;;14.01;65.17
11987;BME280;6053;51.382;6.768;2024-02-16T06:20:29;100837.53;;;13.97;65.65
11987;BME280;6053;51.382;6.768;2024-02-16T06:23:00;100826.28;;;14.22;67.10
11987;BME280;6053;51.382;6.768;2024-02-16T06:25:29;100824.78;;;13.87;65.56
11987;BME280;6053;51.382;6.768;2024-02-16T06:27:57;100823.56;;;13.88;66.55
11987;BME280;6053;51.382;6.768;2024-02-16T06:30:33;100829.50;;;14.21;64.55
11987;BME280;6053;51.382;6.768;2024-02-16T06:33:01;100827.09;;;14.62;66.36
11987;BME280;6053;51.382;6.768;2024-02-16T06:35:32;100814.72;;;14.24;64.36
11987;BME280;6053;51.382;6.768;2024-02-16T06:38:04;100827.38;;;14.55;66.75
11987;BME280;6053;51.382;6.768;2024-02-16T06:40:32;100828.78;;;14.59;63.16
11987;BME280;6053;51.382;6.768;2024-02-16T06:43:00;100830.78;;;14.29;64.03
11987;BME280;6053;51.382;6.768;2024-02-16T06:45:30;100823.22;;;14.59;66.72
11987;BME280;6053;51.382;6.768;2024-02-16T06:48:01;100842.63;;;14.51;64.00
11987;BME280;6053;51.382;6.768;2024-02-16T06:50:30;100845.72;;;15.01;63.15
11987;BME280;6053;51.382;6.768;2024-02-16T06:52:58;100848.75;;;14.76;66.06
11987;BME280;6053;51.382;6.768;2024-02-16T06:55:29;100857.25;;;14.42;63.65
11987;BME280;6053;51.382;6.768;2024-02-16T06:58:03;100859.94;;;14.54;64.50
11987;BME280;6053;51.382;6.768;2024-02-16T07:00:33;100868.81;;;14.71;62.84
11987;BME280;6053;51.382;6.768;2024-02-16T07:03:03;100875.09;;;14.11;64.04
11987;BME280;6053;51.382;6.768;2024-02-16T07:05:31;100883.84;;;14.22;64.81
11987;BME280;6053;51.382;6.768;2024-02-16T07:08:04;100892.81;;;14.26;66.79
11987;BME280;6053;51.382;6.768;2024-02-16T07:10:33;100890.59;;;14.42;66.60
11987;BME280;6053;51.382;6.768;2024-02-16T07:13:04;100895.63;;;14.65;63.68
11987;BME280;6053;51.382;6.768;2024-02-16T07:15:34;100903.53;;;14.15;65.90
11987;BME280;6053;51.382;6.768;2024-02-16T07:18:06;100915.03;;;14.26;64.86
11987;BME280;6053;51.382;6.768;2024-02-16T07:20:34;100908.88;;;14.09;66.90
11987;BME280;6053;51.382;6.768;2024-02-16T07:23:03;100911.94;;;13.90;65.10
11987;BME280;6053;51.382;6.768;2024-02-16T07:25:32;100908.66;;;14.04;67.78
11987;BME280;6053;51.382;6.768;2024-02-16T07:28:00;100904.81;;;13.68;65.33
11987;BME280;6053;51.382;6.768;2024-02-16T07:30:31;100905.56;;;13.80;66.12
11987;BME280;6053;51.382;6.768;2024-02-16T07:33:16;100915.81;;;14.87;64.82
11987;BME280;6053;51.382;6.768;2024-02-16T07:35:44;100920.28;;;14.24;65.39
11987;BME280;6053;51.382;6.768;2024-02-16T07:38:13;100920.34;;;14.11;64.01
11987;BME280;6053;51.382;6.768;2024-02-16T07:40:47;100920.84;;;14.40;65.36
11987;BME280;6053;51.382;6.768;2024-02-16T07:43:17;100932.44;;;14.69;64.96
11987;BME280;6053;51.382;6.768;2024-02-16T07:45:52;100934.88;;;15.28;61.11
11987;BME280;6053;51.382;6.768;2024-02-16T07:48:23;100928.44;;;14.79;65.28
11987;BME280;6053;51.382;6.768;2024-02-16T07:50:51;100930.13;;;14.67;64.91
11987;BME280;6053;51.382;6.768;2024-02-16T07:53:19;100932.97;;;14.34;64.47
11987;BME280;6053;51.382;6.768;2024-02-16T07:55:50;100946.19;;;15.03;65.72
11987;BME280;6053;51.382;6.768;2024-02-16T07:58:19;100951.47;;;14.79;62.74
11987;BME280;6053;51.382;6.768;2024-02-16T08:00:47;100951.81;;;14.81;63.39
11987;BME280;6053;51.382;6.768;2024-02-16T08:03:23;100950.91;;;15.24;64.73
11987;BME280;6053;51.382;6.768;2024-02-16T08:05:58;100958.69;;;14.68;64.44
11987;BME280;6053;51.382;6.768;2024-02-16T08:08:26;100960.16;;;14.60;66.28
11987;BME280;6053;51.382;6.768;2024-02-16T08:10:57;100966.88;;;14.50;62.85
11987;BME280;6053;51.382;6.768;2024-02-16T08:13:26;100972.91;;;14.70;64.84
11987;BME280;6053;51.382;6.768;2024-02-16T08:15:54;100970.41;;;14.63;62.29
11987;BME280;6053;51.382;6.768;2024-02-16T08:18:25;100965.66;;;14.51;63.75
11987;BME280;6053;51.382;6.768;2024-02-16T08:20:58;100969.59;;;14.62;64.65
11987;BME280;6053;51.382;6.768;2024-02-16T08:23:26;100963.34;;;14.71;63.63
11987;BME280;6053;51.382;6.768;2024-02-16T08:25:55;100969.38;;;14.78;64.55
11987;BME280;6053;51.382;6.768;2024-02-16T08:28:28;100981.41;;;15.36;64.81
11987;BME280;6053;51.382;6.768;2024-02-16T08:30:59;100972.19;;;15.18;62.19
11987;BME280;6053;51.382;6.768;2024-02-16T08:33:31;100978.19;;;15.46;62.50
11987;BME280;6053;51.382;6.768;2024-02-16T08:36:00;100981.19;;;15.70;61.60
11987;BME280;6053;51.382;6.768;2024-02-16T08:38:29;100975.00;;;15.66;61.30
11987;BME280;6053;51.382;6.768;2024-02-16T08:40:57;100990.09;;;15.08;63.09
11987;BME280;6053;51.382;6.768;2024-02-16T08:43:28;100984.84;;;15.10;62.41
11987;BME280;6053;51.382;6.768;2024-02-16T08:45:59;100984.06;;;15.09;62.46
11987;BME280;6053;51.382;6.768;2024-02-16T08:48:29;100991.66;;;15.18;60.98
11987;BME280;6053;51.382;6.768;2024-02-16T08:50:57;100991.00;;;15.05;62.09
11987;BME280;6053;51.382;6.768;2024-02-16T08:53:29;100993.66;;;14.78;63.02
11987;BME280;6053;51.382;6.768;2024-02-16T08:55:57;100990.91;;;15.17;62.40
11987;BME280;6053;51.382;6.768;2024-02-16T08:58:29;100998.34;;;15.50;64.23
11987;BME280;6053;51.382;6.768;2024-02-16T09:01:00;101005.28;;;15.46;62.24
11987;BME280;6053;51.382;6.768;2024-02-16T09:03:35;100997.81;;;15.43;60.98
11987;BME280;6053;51.382;6.768;2024-02-16T09:06:10;101000.03;;;14.87;62.27
11987;BME280;6053;51.382;6.768;2024-02-16T09:08:42;101006.94;;;15.04;62.78
11987;BME280;6053;51.382;6.768;2024-02-16T09:11:23;101006.59;;;15.32;64.48
11987;BME280;6053;51.382;6.768;2024-02-16T09:13:51;101009.41;;;14.81;64.91
11987;BME280;6053;51.382;6.768;2024-02-16T09:16:23;101012.56;;;14.92;65.21
11987;BME280;6053;51.382;6.768;2024-02-16T09:18:53;101013.16;;;15.17;66.10
11987;BME280;6053;51.382;6.768;2024-02-16T09:21:24;101013.94;;;14.87;66.07
11987;BME280;6053;51.382;6.768;2024-02-16T09:23:54;101018.06;;;14.83;65.62
11987;BME280;6053;51.382;6.768;2024-02-16T09:26:40;101030.03;;;14.92;65.11
11987;BME280;6053;51.382;6.768;2024-02-16T09:29:15;101028.84;;;15.02;64.79
11987;BME280;6053;51.382;6.768;2024-02-16T09:31:51;101026.63;;;14.97;64.03
11987;BME280;6053;51.382;6.768;2024-02-16T09:34:24;101024.72;;;15.07;64.69
11987;BME280;6053;51.382;6.768;2024-02-16T09:36:52;101031.38;;;15.39;64.48
11987;BME280;6053;51.382;6.768;2024-02-16T09:39:24;101034.38;;;15.24;64.17
11987;BME280;6053;51.382;6.768;2024-02-16T09:41:54;101044.19;;;15.16;62.55
11987;BME280;6053;51.382;6.768;2024-02-16T09:44:25;101045.19;;;15.52;64.23
11987;BME280;6053;51.382;6.768;2024-02-16T09:47:02;101046.09;;;15.49;62.49
11987;BME280;6053;51.382;6.768;2024-02-16T09:49:33;101045.94;;;15.52;63.65
11987;BME280;6053;51.382;6.768;2024-02-16T09:52:10;101054.25;;;15.34;62.75
11987;BME280;6053;51.382;6.768;2024-02-16T09:54:39;101047.94;;;15.43;64.06
11987;BME280;6053;51.382;6.768;2024-02-16T09:57:16;101054.91;;;15.47;61.62
11987;BME280;6053;51.382;6.768;2024-02-16T09:59:51;101052.50;;;15.28;62.91
11987;BME280;6053;51.382;6.768;2024-02-16T10:02:19;101056.19;;;15.55;62.12
11987;BME280;6053;51.382;6.768;2024-02-16T10:05:19;101070.81;;;15.86;63.21
11987;BME280;6053;51.382;6.768;2024-02-16T10:08:12;101069.66;;;15.66;62.52
11987;BME280;6053;51.382;6.768;2024-02-16T10:10:40;101065.50;;;15.70;64.18
11987;BME280;6053;51.382;6.768;2024-02-16T10:13:08;101079.03;;;15.90;63.42
11987;BME280;6053;51.382;6.768;2024-02-16T10:15:38;101089.00;;;16.17;62.94
11987;BME280;6053;51.382;6.768;2024-02-16T10:18:07;101085.81;;;15.80;62.55
11987;BME280;6053;51.382;6.768;2024-02-16T10:20:38;101093.59;;;15.54;63.27
11987;BME280;6053;51.382;6.768;2024-02-16T10:23:12;101094.34;;;15.46;63.41
11987;BME280;6053;51.382;6.768;2024-02-16T10:25:40;101096.94;;;15.80;63.49
11987;BME280;6053;51.382;6.768;2024-02-16T10:28:19;101108.06;;;15.80;63.92
11987;BME280;6053;51.382;6.768;2024-02-16T10:30:59;101108.59;;;15.87;62.39
11987;BME280;6053;51.382;6.768;2024-02-16T10:33:35;101110.94;;;15.58;62.76
11987;BME280;6053;51.382;6.768;2024-02-16T10:36:06;101111.56;;;16.02;63.31
11987;BME280;6053;51.382;6.768;2024-02-16T10:38:36;101121.25;;;15.49;63.77
11987;BME280;6053;51.382;6.768;2024-02-16T10:41:06;101123.34;;;15.66;63.17
11987;BME280;6053;51.382;6.768;2024-02-16T10:43:36;101128.00;;;16.17;63.77
11987;BME280;6053;51.382;6.768;2024-02-16T10:46:05;101128.47;;;16.16;62.59
11987;BME280;6053;51.382;6.768;2024-02-16T10:48:36;101137.31;;;15.75;64.05
11987;BME280;6053;51.382;6.768;2024-02-16T10:51:10;101149.19;;;16.06;62.49
11987;BME280;6053;51.382;6.768;2024-02-16T10:53:43;101142.91;;;15.84;63.81
11987;BME280;6053;51.382;6.768;2024-02-16T10:56:13;101142.00;;;15.96;64.26
11987;BME280;6053;51.382;6.768;2024-02-16T10:58:42;101149.28;;;16.33;62.70
11987;BME280;6053;51.382;6.768;2024-02-16T11:01:10;101145.13;;;15.98;63.86
11987;BME280;6053;51.382;6.768;2024-02-16T11:03:43;101154.28;;;15.99;63.96
11987;BME280;6053;51.382;6.768;2024-02-16T11:06:16;101146.75;;;16.26;63.54
11987;BME280;6053;51.382;6.768;2024-02-16T11:08:49;101139.13;;;16.08;63.10
11987;BME280;6053;51.382;6.768;2024-02-16T11:11:31;101145.72;;;16.32;62.87
11987;BME280;6053;51.382;6.768;2024-02-16T11:14:01;101155.75;;;15.82;64.69
11987;BME280;6053;51.382;6.768;2024-02-16T11:16:30;101156.78;;;15.75;64.94
11987;BME280;6053;51.382;6.768;2024-02-16T11:18:59;101154.94;;;15.72;64.80
11987;BME280;6053;51.382;6.768;2024-02-16T11:21:33;101158.34;;;15.46;65.89
11987;BME280;6053;51.382;6.768;2024-02-16T11:24:06;101156.44;;;16.04;63.95
11987;BME280;6053;51.382;6.768;2024-02-16T11:26:42;101153.31;;;15.93;64.42
11987;BME280;6053;51.382;6.768;2024-02-16T11:29:15;101156.34;;;16.16;64.09
11987;BME280;6053;51.382;6.768;2024-02-16T11:31:47;101159.84;;;16.07;64.45
11987;BME280;6053;51.382;6.768;2024-02-16T11:34:24;101165.81;;;15.88;64.70
11987;BME280;6053;51.382;6.768;2024-02-16T11:36:59;101165.41;;;15.38;66.03
11987;BME280;6053;51.382;6.768;2024-02-16T11:39:40;101170.53;;;15.70;65.67
11987;BME280;6053;51.382;6.768;2024-02-16T11:42:13;101172.59;;;15.27;66.70
11987;BME280;6053;51.382;6.768;2024-02-16T11:44:55;101166.78;;;15.33;66.61
11987;BME280;6053;51.382;6.768;2024-02-16T11:47:35;101168.53;;;15.70;66.00
11987;BME280;6053;51.382;6.768;2024-02-16T11:50:05;101177.94;;;15.64;65.67
11987;BME280;6053;51.382;6.768;2024-02-16T11:52:42;101181.00;;;15.87;64.99
11987;BME280;6053;51.382;6.768;2024-02-16T11:55:14;101173.38;;;15.48;66.44
11987;BME280;6053;51.382;6.768;2024-02-16T11:57:46;101170.25;;;15.46;66.52
11987;BME280;6053;51.382;6.768;2024-02-16T12:00:23;101178.41;;;16.02;65.32
11987;BME280;6053;51.382;6.768;2024-02-16T12:03:00;101173.88;;;15.95;64.70
11987;BME280;6053;51.382;6.768;2024-02-16T12:05:29;101179.22;;;16.02;64.81
11987;BME280;6053;51.382;6.768;2024-02-16T12:08:02;101179.00;;;15.57;66.19
11987;BME280;6053;51.382;6.768;2024-02-16T12:10:30;101177.47;;;15.23;67.09
11987;BME280;6053;51.382;6.768;2024-02-16T12:12:59;101179.88;;;15.12;68.90
11987;BME280;6053;51.382;6.768;2024-02-16T12:15:41;101175.94;;;15.64;66.76
11987;BME280;6053;51.382;6.768;2024-02-16T12:18:25;101179.41;;;15.26;67.38
11987;BME280;6053;51.382;6.768;2024-02-16T12:20:59;101173.72;;;15.17;67.94
11987;BME280;6053;51.382;6.768;2024-02-16T12:23:30;101178.69;;;15.34;67.34
11987;BME280;6053;51.382;6.768;2024-02-16T12:25:59;101171.84;;;15.26;68.08
11987;BME280;6053;51.382;6.768;2024-02-16T12:28:36;101182.34;;;15.10;68.91
11987;BME280;6053;51.382;6.768;2024-02-16T12:31:08;101185.97;;;14.98;69.38
11987;BME280;6053;51.382;6.768;2024-02-16T12:33:36;101189.88;;;14.88;70.53
11987;BME280;6053;51.382;6.768;2024-02-16T12:36:08;101189.38;;;15.02;69.64
11987;BME280;6053;51.382;6.768;2024-02-16T12:38:40;101198.66;;;14.99;70.06
11987;BME280;6053;51.382;6.768;2024-02-16T12:41:13;101195.19;;;14.73;71.26
11987;BME280;6053;51.382;6.768;2024-02-16T12:43:47;101195.03;;;15.11;70.07
11987;BME280;6053;51.382;6.768;2024-02-16T12:46:32;101208.97;;;15.32;69.40
11987;BME280;6053;51.382;6.768;2024-02-16T12:49:01;101209.47;;;15.18;69.84
11987;BME280;6053;51.382;6.768;2024-02-16T12:51:29;101208.84;;;15.02;70.16
11987;BME280;6053;51.382;6.768;2024-02-16T12:54:00;101211.63;;;15.02;70.88
11987;BME280;6053;51.382;6.768;2024-02-16T12:56:33;101220.91;;;14.99;70.87
11987;BME280;6053;51.382;6.768;2024-02-16T12:59:01;101209.47;;;14.84;71.60
11987;BME280;6053;51.382;6.768;2024-02-16T13:01:33;101213.44;;;15.51;69.25
11987;BME280;6053;51.382;6.768;2024-02-16T13:04:01;101208.47;;;15.76;67.76
11987;BME280;6053;51.382;6.768;2024-02-16T13:06:36;101210.63;;;15.08;70.71
11987;BME280;6053;51.382;6.768;2024-02-16T13:09:06;101223.84;;;15.59;68.78
11987;BME280;6053;51.382;6.768;2024-02-16T13:11:35;101224.00;;;15.22;70.17
11987;BME280;6053;51.382;6.768;2024-02-16T13:14:04;101227.69;;;14.98;71.32
11987;BME280;6053;51.382;6.768;2024-02-16T13:16:32;101226.06;;;14.75;72.10
11987;BME280;6053;51.382;6.768;2024-02-16T13:19:01;101235.09;;;14.67;72.96
11987;BME280;6053;51.382;6.768;2024-02-16T13:21:30;101228.66;;;15.04;70.98
11987;BME280;6053;51.382;6.768;2024-02-16T13:23:59;101236.50;;;14.96;72.14